Strona główna
METAR-TAF:

METAR-TAF

Lotnisko :

Nashua, New Hampshire, Stany Zjednoczone

Szerokość geograficzna: 42-47N, Długość geograficzna: 071-31W, wysokość: 61 m

Aktualna obserwacja pogody

Raport powstał 8 minut temu, godzina 08:56 UTC
Wiatr 4 kt od północno-północny zachód
Temperatura 18°C
Wilgotność 94%
Ciśnienie 1021 hPa
Widzialność: 16.1 km
Mało chmury na wysokości 1700 ft
Rozproszone chmury na wysokości 3900 ft
Zachmurzenie całkowite na wysokości 4900 ft

METAR: KASH 200856Z AUTO 33004KT 10SM FEW017 SCT039 OVC049 18/17 A3015 RMK AO2 RAB25E38 SLP219 6//// T01780167 53002 PNO $

czas: 05:04 (09:04 UTC)


TAF: brakujący

Obserwacja i prognoza pogody dla ponad 4000 lotnisk (raport METAR i TAF).

Dostępne stacje oznaczono żółtymi i czerwonymi punktami na mapie.

Najedź kursorem aby zobaczyć nazwę stacji.

Kliknij aby zobaczyć obserwacje i prognozy pogody.

Aby zmienić mapę: kliknij na zielony przycisk z czarnym krzyżykiem, aby powiększyć; na zielony przycisk z myślnikiem, aby pomniejszyć; na zielone strzałki, aby przejść do map sąsiednich.


METAR-TAF: